This is the latest recevied weather packets stored in our database for station/object IQ5KG. If no packets are shown the sender has not sent any weather packets the latest 10 day(s).
| Time | Temp. | Humidity | Pressure | Rain* | Wind** | Luminosity | Snow |
|---|---|---|---|---|---|---|---|
| 1777490207 | 18.33° C | 42% | 1015.7 hPa | 0 mm | - | - | - |
| 1777489306 | 18.89° C | 41% | 1015.5 hPa | 0 mm | - | - | - |
| 1777488406 | 18.89° C | 41% | 1015.5 hPa | 0 mm | - | - | - |
| 1777487507 | 18.89° C | 40% | 1015.3 hPa | 0 mm | - | - | - |
| 1777486606 | 18.89° C | 38% | 1014.9 hPa | 0 mm | - | - | - |
| 1777485706 | 19.44° C | 38% | 1014.6 hPa | 0 mm | - | - | - |
| 1777484806 | 19.44° C | 37% | 1014.4 hPa | 0 mm | - | - | - |
| 1777483907 | 20° C | 37% | 1014.1 hPa | 0 mm | - | - | - |
| 1777483006 | 20.56° C | 39% | 1014.2 hPa | 0 mm | - | - | - |
| 1777482107 | 21.11° C | 40% | 1014.3 hPa | 0 mm | - | - | - |
| 1777481206 | 21.11° C | 38% | 1014.1 hPa | 0 mm | - | - | - |
| 1777480305 | 21.67° C | 38% | 1014 hPa | 0 mm | - | - | - |
| 1777479406 | 22.22° C | 37% | 1014.1 hPa | 0 mm | - | - | - |
| 1777478505 | 22.22° C | 38% | 1014.3 hPa | 0 mm | - | - | - |
| 1777477605 | 22.78° C | 38% | 1014.4 hPa | 0 mm | - | - | - |
| 1777476705 | 22.22° C | 39% | 1014.4 hPa | 0 mm | - | - | - |
| 1777475806 | 22.78° C | 40% | 1014.5 hPa | 0 mm | - | - | - |
| 1777474905 | 22.78° C | 41% | 1014.7 hPa | 0 mm | - | - | - |
| 1777474006 | 22.78° C | 41% | 1014.6 hPa | 0 mm | - | - | - |
| 1777473105 | 23.33° C | 40% | 1014.5 hPa | 0 mm | - | - | - |
| 1777472204 | 23.89° C | 41% | 1014.7 hPa | 0 mm | - | - | - |
| 1777471305 | 24.44° C | 40% | 1014.7 hPa | 0 mm | - | - | - |
| 1777470404 | 24.44° C | 39% | 1014.6 hPa | 0 mm | - | - | - |
| 1777469504 | 26.67° C | 24% | 1015 hPa | 0 mm | - | - | - |
| 1777468605 | 27.22° C | 24% | 1015.1 hPa | 0 mm | - | - | - |
* Rain latest hour (hover to see other rain measurements)
** Current wind speed in m/s (hover to see current wind gust speed)